Latest Weather Observations for Newcastle Nobbys

IDN60801

Issued at 3:32 pm EDT Monday 27 March 2017 (issued every 30 minutes, with the page automatically refreshed every 10 minutes)

About weather observations | Map of weather stations | Latest weather observations for NSW | Other Formats
Station Details ID: 061055 Name: NEWCASTLE NOBBYS SIGNAL STATION AWS Lat: -32.92 Lon: 151.80 Height: 33.0 m
Data from the previous 72 hours. | See also: Recent months at Newcastle Nobbys
Date/Time
EDT
Temp
°C
App
Temp
°C
Dew
Point
°C
Rel
Hum
%
Delta-T
°C
Wind Press
QNH
hPa
Press
MSL
hPa
Rain since
9am
mm
Dir  Spd
km/h
Gust
km/h
Spd
kts
Gust
kts
27/03:30pm 24.5 22.5 20.8 80 2.4 ENE 32 39 17 21 - - 0.0
27/03:00pm 24.6 23.1 20.9 80 2.4 ENE 30 35 16 19 - - 0.0
27/02:30pm 24.7 23.5 20.8 79 2.6 ENE 28 33 15 18 - - 0.0
27/02:00pm 24.6 23.4 20.9 80 2.4 E 28 32 15 17 - - 0.0
27/01:30pm 24.9 24.5 21.0 79 2.6 E 24 32 13 17 - - 0.0
27/01:00pm 24.7 24.4 20.4 77 2.8 E 22 26 12 14 - - 0.0
27/12:30pm 24.9 25.1 20.6 77 2.8 E 20 26 11 14 - - 0.0
27/12:00pm 24.9 25.1 20.6 77 2.8 E 20 22 11 12 - - 0.0
27/11:30am 24.8 25.5 20.5 77 2.8 E 17 20 9 11 - - 0.0
27/11:00am 25.0 26.2 20.0 74 3.2 ENE 13 15 7 8 - - 0.0
27/10:30am 25.4 27.2 20.4 74 3.3 ENE 11 13 6 7 - - 0.0
27/10:00am 24.6 26.8 20.3 77 2.8 NE 9 13 5 7 - - 0.0
27/09:30am 24.1 26.2 20.2 79 2.5 NE 9 13 5 7 - - 0.0
27/09:00am 23.1 25.2 20.1 83 1.9 NE 9 15 5 8 - - 0.0
27/08:30am 22.6 25.1 19.9 85 1.7 NNE 6 9 3 5 - - 0.0
27/08:00am 21.6 23.8 19.5 88 1.3 NW 7 9 4 5 - - 0.0
27/07:30am 21.9 23.9 20.0 89 1.2 NE 9 11 5 6 - - 0.0
27/07:00am 21.2 23.0 19.5 90 1.1 NE 9 11 5 6 - - 0.0
27/06:30am 20.9 24.1 19.7 93 0.8 NNW 2 2 1 1 - - 0.0
27/06:00am 20.6 24.0 19.3 92 0.8 CALM 0 0 0 0 - - 0.0
27/05:30am 20.4 22.9 19.1 92 0.8 NW 4 6 2 3 - - 0.0
27/05:00am 20.9 23.3 19.6 92 0.8 N 6 7 3 4 - - 0.0
27/04:30am 21.4 23.6 19.5 89 1.2 NE 7 9 4 5 - - 0.0
27/04:00am 21.3 23.5 19.2 88 1.3 NE 6 9 3 5 - - 0.0
27/03:30am 21.2 23.7 19.1 88 1.3 N 4 7 2 4 - - 0.0
27/03:00am 21.7 23.9 19.6 88 1.3 NNE 7 9 4 5 - - 0.0
27/02:30am 21.9 23.7 19.5 86 1.5 NNE 9 13 5 7 - - 0.0
27/02:00am 21.8 23.7 19.7 88 1.3 NE 9 13 5 7 - - 0.0
27/01:30am 22.0 24.2 19.7 87 1.5 NE 7 11 4 6 - - 0.0
27/01:00am 21.9 24.1 19.6 87 1.5 NE 7 11 4 6 - - 0.0
27/12:30am 22.1 24.4 19.8 87 1.5 NE 7 11 4 6 - - 0.0
27/12:00am 22.3 23.4 19.7 85 1.7 NE 13 17 7 9 - - 0.0
 
Date/Time
EDT
Temp
°C
App
Temp
°C
Dew
Point
°C
Rel
Hum
%
Delta-T
°C
Wind Press
QNH
hPa
Press
MSL
hPa
Rain since
9am
mm
Dir  Spd
km/h
Gust
km/h
Spd
kts
Gust
kts
26/11:30pm 22.5 22.9 19.9 85 1.7 NE 17 20 9 11 - - 0.0
26/11:00pm 22.4 22.3 19.6 84 1.8 NE 19 24 10 13 - - 0.0
26/10:30pm 22.5 23.2 19.7 84 1.8 NE 15 20 8 11 - - 0.0
26/10:00pm 22.5 22.4 19.9 85 1.7 NE 20 26 11 14 - - 0.0
26/09:30pm 22.6 23.0 19.9 85 1.7 NE 17 22 9 12 - - 0.0
26/09:00pm 22.8 22.8 19.8 83 1.9 NE 19 26 10 14 - - 0.0
26/08:30pm 23.0 22.9 20.0 83 1.9 ENE 20 26 11 14 - - 0.0
26/08:00pm 22.9 22.3 19.7 82 2.1 ENE 22 26 12 14 - - 0.0
26/07:30pm 23.0 22.5 20.0 83 1.9 E 22 28 12 15 - - 0.0
26/07:00pm 23.1 22.7 20.2 84 1.9 E 22 28 12 15 - - 0.0
26/06:30pm 23.6 23.7 20.3 82 2.1 E 20 26 11 14 - - 0.0
26/06:00pm 23.8 23.9 20.3 81 2.3 E 20 26 11 14 - - 0.0
26/05:30pm 24.1 24.1 20.2 79 2.5 E 20 24 11 13 - - 0.0
26/05:00pm 24.4 24.7 20.3 78 2.7 E 19 22 10 12 - - 0.0
26/04:30pm 24.7 25.2 20.8 79 2.6 E 19 24 10 13 - - 0.0
26/04:00pm 24.9 25.4 20.8 78 2.7 E 19 22 10 12 - - 0.0
26/03:30pm 25.0 25.5 21.1 79 2.6 E 20 24 11 13 - - 0.0
26/03:00pm 25.3 25.8 21.2 78 2.7 E 20 22 11 12 - - 0.0
26/02:30pm 25.7 27.0 21.6 78 2.7 E 17 19 9 10 - - 0.0
26/02:00pm 26.1 28.4 22.0 78 2.7 ESE 13 15 7 8 - - 0.0
26/01:30pm 24.6 25.9 21.7 84 1.9 SSE 17 19 9 10 - - 0.0
26/01:00pm 24.3 25.9 21.4 84 1.9 S 15 17 8 9 - - 0.0
26/12:30pm 24.7 26.4 21.6 83 2.1 S 15 17 8 9 - - 0.0
26/12:00pm 24.4 25.9 21.3 83 2.0 S 15 19 8 10 - - 0.0
26/11:30am 24.1 25.9 21.2 84 1.9 S 13 15 7 8 - - 0.0
26/11:00am 24.0 25.8 21.1 84 1.9 S 13 17 7 9 - - 0.0
26/10:30am 23.7 25.3 20.8 84 1.9 S 13 19 7 10 - - 0.0
26/10:00am 23.4 25.5 20.9 86 1.6 SSW 11 17 6 9 - - 0.0
26/09:30am 23.1 25.5 20.8 87 1.5 SSW 9 13 5 7 - - 0.0
26/09:00am 22.3 24.7 20.8 91 1.0 SW 9 17 5 9 - - 0.0
26/08:30am 21.7 23.5 20.3 92 0.9 SSW 11 17 6 9 - - 0.0
26/08:00am 21.5 23.4 20.5 94 0.6 SSW 11 19 6 10 - - 0.0
26/07:30am 21.6 24.4 20.8 95 0.5 SW 7 15 4 8 - - 0.0
26/07:00am 21.4 24.2 20.4 94 0.6 WSW 6 7 3 4 - - 0.0
26/06:30am 21.7 24.6 20.7 94 0.6 SW 6 9 3 5 - - 0.0
26/06:00am 21.8 23.4 20.8 94 0.7 SSW 13 17 7 9 - - 0.0
26/05:30am 21.9 23.1 20.7 93 0.8 SSW 15 19 8 10 - - 0.0
26/05:00am 21.9 23.8 20.5 92 0.9 SSW 11 17 6 9 - - 0.0
26/04:30am 21.7 23.3 20.0 90 1.1 SSW 11 13 6 7 - - 0.0
26/04:00am 21.6 23.8 19.5 88 1.3 SSW 7 9 4 5 - - 0.0
26/03:30am 21.3 23.8 19.0 87 1.5 SW 4 6 2 3 - - 0.0
26/03:00am 21.3 24.6 19.0 87 1.5 CALM 0 0 0 0 - - 0.0
26/02:30am 21.4 24.3 19.1 87 1.5 WNW 2 4 1 2 - - 0.0
26/02:00am 21.5 23.5 19.2 87 1.5 NW 7 9 4 5 - - 0.0
26/01:30am 21.6 24.6 19.2 86 1.5 NW 2 2 1 1 - - 0.0
26/01:00am 21.8 24.7 19.0 84 1.8 NE 2 4 1 2 - - 0.0
26/12:30am 22.0 24.3 19.4 85 1.7 NW 6 7 3 4 - - 0.0
26/12:00am 22.1 24.1 19.1 83 1.9 N 7 13 4 7 - - 0.0
 
Date/Time
EDT
Temp
°C
App
Temp
°C
Dew
Point
°C
Rel
Hum
%
Delta-T
°C
Wind Press
QNH
hPa
Press
MSL
hPa
Rain since
9am
mm
Dir  Spd
km/h
Gust
km/h
Spd
kts
Gust
kts
25/11:30pm 22.4 23.4 19.4 83 1.9 NNE 13 17 7 9 - - 0.0
25/11:00pm 22.4 24.1 19.4 83 1.9 NE 9 15 5 8 - - 0.0
25/10:30pm 22.5 23.5 19.5 83 1.9 NE 13 19 7 10 - - 0.0
25/10:00pm 22.6 22.5 19.6 83 1.9 NE 19 24 10 13 - - 0.0
25/09:30pm 22.6 23.3 19.6 83 1.9 NE 15 20 8 11 - - 0.0
25/09:00pm 22.5 22.4 19.5 83 1.9 ENE 19 24 10 13 - - 0.0
25/08:30pm 22.7 22.7 19.7 83 1.9 ENE 19 24 10 13 - - 0.0
25/08:00pm 22.7 22.5 19.7 83 1.9 ENE 20 26 11 14 - - 0.0
25/07:30pm 22.7 22.6 19.5 82 2.0 ENE 19 24 10 13 - - 0.0
25/07:00pm 22.8 22.3 19.2 80 2.3 E 20 24 11 13 - - 0.0
25/06:30pm 22.8 21.9 19.0 79 2.4 E 22 26 12 14 - - 0.0
25/06:00pm 22.9 21.8 18.7 77 2.7 E 22 26 12 14 - - 0.0
25/05:30pm 23.1 22.0 18.6 76 2.8 E 22 26 12 14 - - 0.0
25/05:00pm 23.2 22.0 18.5 75 3.0 ENE 22 28 12 15 - - 0.0
25/04:30pm 23.8 23.1 18.7 73 3.2 ENE 20 26 11 14 - - 0.0
25/04:00pm 23.5 22.6 18.2 72 3.3 E 20 26 11 14 - - 0.0
25/03:30pm 22.9 21.7 17.6 72 3.3 ENE 20 24 11 13 - - 0.0
25/03:00pm 22.9 22.0 16.9 69 3.7 E 17 22 9 12 - - 0.0
25/02:30pm 23.6 22.7 17.8 70 3.6 E 19 22 10 12 - - 0.0
25/02:00pm 23.2 21.8 17.0 68 3.8 E 20 24 11 13 - - 0.0
25/01:30pm 24.2 24.1 17.9 68 3.9 E 15 19 8 10 - - 0.0
25/01:00pm 23.6 24.3 18.0 71 3.5 E 11 13 6 7 - - 0.0
25/12:30pm 23.9 24.6 17.9 69 3.8 ESE 11 13 6 7 - - 0.0
25/12:00pm 23.6 24.3 18.0 71 3.5 E 11 15 6 8 - - 0.0
25/11:30am 23.1 24.2 17.1 69 3.7 E 7 13 4 7 - - 0.0
25/11:00am 23.8 25.4 17.8 69 3.7 NNE 6 7 3 4 - - 0.0
25/10:30am 22.8 24.6 17.3 71 3.4 N 4 7 2 4 - - 0.0
25/10:00am 23.0 25.1 18.1 74 3.1 N 4 7 2 4 - - 0.0
25/09:30am 22.0 22.9 17.6 76 2.7 NNW 9 13 5 7 - - 0.0
25/09:00am 21.3 22.2 17.5 79 2.3 NW 9 11 5 6 - - 1.4
25/08:30am 20.2 21.0 17.2 83 1.8 NW 9 11 5 6 - - 1.4
25/08:00am 20.1 21.6 17.5 85 1.6 NNW 6 9 3 5 - - 1.4
25/07:30am 19.5 21.4 17.6 89 1.2 NNW 4 6 2 3 - - 1.4
25/07:00am 19.6 20.4 17.2 86 1.5 NW 9 13 5 7 - - 1.4
25/06:30am 20.3 21.7 17.3 83 1.8 W 6 7 3 4 - - 1.4
25/06:00am 20.1 21.3 16.9 82 1.9 NNW 6 9 3 5 - - 1.4
25/05:30am 20.6 21.5 16.6 78 2.4 S 7 11 4 6 - - 1.4
25/05:00am 20.1 21.3 16.9 82 1.9 WNW 6 7 3 4 - - 1.4
25/04:30am 20.6 21.7 17.2 81 2.1 NNE 7 15 4 8 - - 1.4
25/04:00am 21.2 21.6 15.3 69 3.5 E 7 11 4 6 - - 1.4
25/03:30am 21.1 20.9 14.7 67 3.8 ESE 9 13 5 7 - - 1.4
25/03:00am 21.1 20.6 15.0 68 3.6 ESE 11 15 6 8 - - 1.4
25/02:30am 21.3 21.0 15.4 69 3.5 SE 11 13 6 7 - - 1.4
25/02:00am 21.4 20.7 15.3 68 3.6 SE 13 17 7 9 - - 1.4
25/01:30am 21.4 19.7 14.8 66 3.9 SE 17 20 9 11 - - 1.4
25/01:00am 21.2 19.3 15.1 68 3.6 SE 19 22 10 12 - - 1.4
25/12:30am 21.4 19.4 15.0 67 3.8 SE 19 22 10 12 - - 1.4
25/12:00am 21.4 19.6 15.5 69 3.5 SE 19 22 10 12 - - 1.4
 
Date/Time
EDT
Temp
°C
App
Temp
°C
Dew
Point
°C
Rel
Hum
%
Delta-T
°C
Wind Press
QNH
hPa
Press
MSL
hPa
Rain since
9am
mm
Dir  Spd
km/h
Gust
km/h
Spd
kts
Gust
kts
24/11:30pm 21.5 19.6 15.3 68 3.7 SE 19 22 10 12 - - 1.4
24/11:00pm 21.5 19.6 15.8 70 3.4 SE 20 26 11 14 - - 1.4
24/10:30pm 21.5 19.5 15.6 69 3.5 SE 20 24 11 13 - - 1.4
24/10:00pm 21.6 19.8 16.1 71 3.3 SE 20 26 11 14 - - 1.4
24/09:30pm 21.5 18.8 15.6 69 3.5 SE 24 30 13 16 - - 1.4
24/09:00pm 21.8 18.7 16.5 72 3.2 SE 28 35 15 19 - - 1.4
24/08:30pm 21.6 18.8 16.3 72 3.2 SE 26 32 14 17 - - 1.4
24/08:00pm 21.5 18.6 17.1 76 2.7 SE 28 35 15 19 - - 1.4
24/07:30pm 20.3 20.1 18.4 89 1.2 SW 17 24 9 13 - - 0.8
24/07:00pm 20.1 21.6 17.7 86 1.5 S 6 11 3 6 - - 0.8
24/06:30pm 20.4 18.1 17.6 84 1.7 S 26 32 14 17 - - 0.8
24/06:00pm 21.9 18.5 16.8 73 3.1 SSE 30 35 16 19 - - 0.8
24/05:53pm 22.0 19.2 17.4 75 2.8 SSE 28 33 15 18 - - 0.8
24/05:30pm 22.3 23.1 18.1 77 2.6 S 11 15 6 8 - - 0.8
24/05:00pm 22.3 21.8 17.9 76 2.7 SSE 17 20 9 11 - - 0.8
24/04:30pm 22.8 20.9 16.8 69 3.7 SSE 22 26 12 14 - - 0.8
24/04:00pm 23.4 21.7 17.2 68 3.8 SE 22 26 12 14 - - 0.8

Other Formats:

Comma delimited format used in spreadsheet applications
http://www.bom.gov.au/fwo/IDN60801/IDN60801.94774.axf

JavaScript Object Notation format (JSON) in row-major order
http://www.bom.gov.au/fwo/IDN60801/IDN60801.94774.json